createdAt,value
2023-01-19T00:00:00.093Z,13.32
2023-01-19T00:02:26.777Z,13.25
2023-01-19T00:04:53.463Z,10.15
2023-01-19T00:07:20.026Z,16.13
2023-01-19T00:09:46.772Z,13.38
2023-01-19T00:12:13.378Z,19.13
2023-01-19T00:14:40.147Z,15.13
2023-01-19T00:17:07.390Z,10.27
2023-01-19T00:19:34.043Z,13.43
2023-01-19T00:22:00.777Z,7.60
2023-01-19T00:24:27.403Z,12.60
2023-01-19T00:26:54.055Z,8.90
2023-01-19T00:29:20.650Z,2.97
2023-01-19T00:31:47.423Z,12.85
2023-01-19T00:34:14.083Z,18.80
2023-01-19T00:36:40.883Z,8.63
2023-01-19T00:39:07.869Z,26.48
2023-01-19T00:41:53.335Z,9.95
2023-01-19T00:44:19.957Z,12.30
2023-01-19T00:46:46.652Z,10.82
2023-01-19T00:49:13.249Z,12.75
2023-01-19T00:51:39.870Z,12.77
2023-01-19T00:54:10.383Z,13.60
2023-01-19T00:56:37.487Z,4.78
2023-01-19T00:59:05.056Z,9.77
2023-01-19T01:01:45.446Z,11.25
2023-01-19T01:04:13.617Z,7.45
2023-01-19T01:06:40.347Z,15.93
2023-01-19T01:09:12.115Z,6.85
2023-01-19T01:11:39.976Z,8.35
2023-01-19T01:14:06.978Z,9.05
2023-01-19T01:16:33.744Z,20.17
2023-01-19T01:19:00.475Z,9.45
2023-01-19T01:21:27.147Z,15.10
2023-01-19T01:23:53.872Z,16.10
2023-01-19T01:26:20.578Z,8.00
2023-01-19T01:28:47.210Z,10.35
2023-01-19T01:31:13.898Z,12.88
2023-01-19T01:33:41.927Z,13.43
2023-01-19T01:36:10.053Z,14.52
2023-01-19T01:38:36.696Z,10.50
2023-01-19T01:41:03.668Z,6.32
2023-01-19T01:43:50.121Z,9.48
2023-01-19T01:46:17.405Z,6.03
2023-01-19T01:48:51.377Z,5.22
2023-01-19T01:51:28.897Z,11.10
2023-01-19T01:54:00.541Z,7.05
2023-01-19T01:56:34.488Z,6.45
2023-01-19T01:59:02.426Z,21.40
2023-01-19T02:01:47.710Z,17.75
2023-01-19T02:04:14.469Z,10.93
2023-01-19T02:06:59.631Z,12.48
2023-01-19T02:09:44.743Z,6.97
2023-01-19T02:12:30.572Z,14.65
2023-01-19T02:14:57.252Z,10.80
2023-01-19T02:17:23.978Z,9.35
2023-01-19T02:19:51.008Z,17.00
2023-01-19T02:22:23.439Z,12.52
2023-01-19T02:24:50.145Z,9.85
2023-01-19T02:27:16.827Z,11.13
2023-01-19T02:29:43.449Z,16.42
2023-01-19T02:32:10.282Z,14.48
2023-01-19T02:34:37.013Z,7.20
2023-01-19T02:37:21.770Z,18.23
2023-01-19T02:39:59.091Z,10.95
2023-01-19T02:42:30.919Z,15.13
2023-01-19T02:44:57.741Z,12.88
2023-01-19T02:47:24.375Z,5.88
2023-01-19T02:49:56.104Z,11.73
2023-01-19T02:52:22.837Z,14.57
2023-01-19T02:54:58.435Z,18.38
2023-01-19T02:57:49.189Z,12.90
2023-01-19T03:00:37.441Z,22.55
2023-01-19T03:03:07.065Z,9.57
2023-01-19T03:05:49.970Z,12.65
2023-01-19T03:08:39.563Z,15.23
2023-01-19T03:11:12.804Z,14.15
2023-01-19T03:14:00.948Z,16.40
2023-01-19T03:16:31.479Z,12.45
2023-01-19T03:19:16.223Z,16.83
2023-01-19T03:21:44.329Z,15.68
2023-01-19T03:24:11.406Z,14.70
2023-01-19T03:26:41.598Z,11.70
2023-01-19T03:29:08.238Z,10.25
2023-01-19T03:31:34.874Z,11.45
2023-01-19T03:34:03.813Z,11.40
2023-01-19T03:36:34.002Z,11.73
2023-01-19T03:39:00.956Z,17.77
2023-01-19T03:41:28.490Z,18.92
2023-01-19T03:43:55.648Z,19.10
2023-01-19T03:46:22.940Z,10.95
2023-01-19T03:48:49.935Z,18.70
2023-01-19T03:51:16.586Z,13.27
2023-01-19T03:53:43.289Z,25.83
2023-01-19T03:56:27.873Z,15.70
2023-01-19T04:01:23.874Z,17.23
2023-01-19T04:03:51.306Z,22.92
2023-01-19T04:06:18.124Z,15.95
2023-01-19T04:08:44.850Z,21.50
2023-01-19T04:11:12.329Z,20.15
2023-01-19T04:13:39.027Z,15.95
2023-01-19T04:16:06.243Z,10.05
2023-01-19T04:18:34.725Z,12.18
2023-01-19T04:21:06.195Z,15.43
2023-01-19T04:23:33.588Z,7.13
2023-01-19T04:26:01.201Z,20.73
2023-01-19T04:28:27.905Z,15.52
2023-01-19T04:30:54.695Z,12.20
2023-01-19T04:33:21.517Z,22.20
2023-01-19T04:35:48.712Z,21.52
2023-01-19T04:38:15.313Z,10.10
2023-01-19T04:40:41.980Z,17.35
2023-01-19T04:43:08.879Z,13.82
2023-01-19T04:45:36.588Z,12.05
2023-01-19T04:48:06.672Z,17.98
2023-01-19T04:50:33.389Z,13.02
2023-01-19T04:53:00.979Z,17.52
2023-01-19T04:55:27.964Z,13.77
2023-01-19T04:57:54.842Z,17.40
2023-01-19T05:00:21.748Z,21.67
2023-01-19T05:02:48.591Z,16.35
2023-01-19T05:05:15.369Z,13.90
2023-01-19T05:07:42.778Z,18.20
2023-01-19T05:10:10.227Z,12.45
2023-01-19T05:12:37.329Z,17.08
2023-01-19T05:15:04.449Z,21.95
2023-01-19T05:17:31.047Z,15.15
2023-01-19T05:19:57.708Z,17.58
2023-01-19T05:22:24.544Z,17.15
2023-01-19T05:24:51.132Z,17.75
2023-01-19T05:27:17.854Z,10.07
2023-01-19T05:29:44.441Z,13.05
2023-01-19T05:32:11.177Z,12.90
2023-01-19T05:34:37.815Z,20.15
2023-01-19T05:37:04.439Z,17.80
2023-01-19T05:39:31.191Z,17.38
2023-01-19T05:41:57.772Z,16.95
2023-01-19T05:44:24.559Z,15.20
2023-01-19T05:46:51.320Z,17.13
2023-01-19T05:49:18.020Z,13.35
2023-01-19T05:51:45.544Z,11.90
2023-01-19T05:54:14.202Z,18.83
2023-01-19T05:56:40.912Z,13.82
2023-01-19T05:59:07.607Z,13.00
2023-01-19T06:01:37.037Z,19.67
2023-01-19T06:04:05.749Z,25.88
2023-01-19T06:06:32.453Z,14.05
2023-01-19T06:08:59.292Z,16.98
2023-01-19T06:11:26.263Z,19.48
2023-01-19T06:13:52.887Z,19.75
2023-01-19T06:16:19.632Z,13.85
2023-01-19T06:18:46.319Z,11.77
2023-01-19T06:21:14.371Z,14.65
2023-01-19T06:23:41.126Z,28.55
2023-01-19T06:26:07.804Z,25.35
2023-01-19T06:28:34.558Z,11.23
2023-01-19T06:31:01.329Z,16.48
2023-01-19T06:33:28.097Z,16.95
2023-01-19T06:35:54.877Z,21.23
2023-01-19T06:38:21.743Z,16.77
2023-01-19T06:40:55.860Z,17.67
2023-01-19T06:43:22.583Z,13.25
2023-01-19T06:45:50.211Z,16.02
2023-01-19T06:48:17.006Z,13.70
2023-01-19T06:50:46.959Z,16.35
2023-01-19T06:53:14.636Z,17.38
2023-01-19T06:55:41.221Z,18.63
2023-01-19T06:58:08.533Z,17.70
2023-01-19T07:00:35.328Z,13.18
2023-01-19T07:03:02.611Z,11.77
2023-01-19T07:05:29.482Z,15.35
2023-01-19T07:07:56.652Z,10.73
2023-01-19T07:10:24.331Z,25.88
2023-01-19T07:12:51.033Z,17.35
2023-01-19T07:15:19.780Z,22.25
2023-01-19T07:17:46.456Z,24.27
2023-01-19T07:20:14.279Z,14.27
2023-01-19T07:22:41.895Z,20.60
2023-01-19T07:25:08.949Z,23.00
2023-01-19T07:27:35.661Z,23.70
2023-01-19T07:30:02.513Z,22.48
2023-01-19T07:32:29.189Z,54.33
2023-01-19T07:34:55.849Z,21.02
2023-01-19T07:37:22.550Z,14.32
2023-01-19T07:39:49.223Z,11.15
2023-01-19T07:42:15.939Z,23.55
2023-01-19T07:44:42.702Z,37.35
2023-01-19T07:47:12.561Z,65.80
2023-01-19T07:49:39.725Z,21.13
2023-01-19T07:52:06.385Z,12.75
2023-01-19T07:54:33.237Z,25.08
2023-01-19T07:57:00.880Z,27.95
2023-01-19T07:59:31.140Z,18.92
2023-01-19T08:01:59.558Z,24.45
2023-01-19T08:04:27.370Z,21.55
2023-01-19T08:06:54.216Z,20.65
2023-01-19T08:09:20.892Z,23.80
2023-01-19T08:11:47.521Z,24.13
2023-01-19T08:14:14.160Z,15.02
2023-01-19T08:16:40.828Z,13.48
2023-01-19T08:19:07.443Z,15.98
2023-01-19T08:21:35.596Z,19.77
2023-01-19T08:24:02.533Z,17.98
2023-01-19T08:26:30.679Z,20.83
2023-01-19T08:28:58.368Z,17.13
2023-01-19T08:31:25.315Z,12.57
2023-01-19T08:33:52.331Z,19.23
2023-01-19T08:36:19.518Z,16.80
2023-01-19T08:38:46.406Z,14.40
2023-01-19T08:41:13.266Z,21.58
2023-01-19T08:43:39.864Z,14.25
2023-01-19T08:46:06.794Z,17.67
2023-01-19T08:48:33.626Z,18.38
2023-01-19T08:51:00.549Z,12.85
2023-01-19T08:53:27.270Z,14.50
2023-01-19T08:56:01.331Z,15.88
2023-01-19T08:58:28.355Z,13.63
2023-01-19T09:00:55.226Z,19.38
2023-01-19T09:03:22.873Z,19.25
2023-01-19T09:05:49.691Z,23.42
2023-01-19T09:08:16.624Z,23.70
2023-01-19T09:10:48.077Z,28.45
2023-01-19T09:13:14.882Z,22.00
2023-01-19T09:15:41.770Z,17.80
2023-01-19T09:18:10.388Z,10.23
2023-01-19T09:20:39.082Z,14.43
2023-01-19T09:23:06.270Z,13.23
2023-01-19T09:25:32.960Z,5.28
2023-01-19T09:28:00.524Z,10.20
2023-01-19T09:30:27.943Z,14.38
2023-01-19T09:32:54.682Z,19.80
2023-01-19T09:35:21.698Z,21.58
2023-01-19T09:37:48.383Z,17.80
2023-01-19T09:40:15.463Z,22.02
2023-01-19T09:42:46.440Z,12.75
2023-01-19T09:45:23.361Z,14.25
2023-01-19T09:47:49.939Z,20.77
2023-01-19T09:50:28.175Z,19.02
2023-01-19T09:53:07.523Z,8.23
2023-01-19T09:55:34.226Z,9.50
2023-01-19T09:58:01.237Z,11.88
2023-01-19T10:00:28.067Z,12.13
2023-01-19T10:02:57.685Z,14.70
2023-01-19T10:05:34.062Z,9.15
2023-01-19T10:08:28.720Z,17.90
2023-01-19T10:10:56.839Z,14.63
2023-01-19T10:13:36.552Z,9.10
2023-01-19T10:16:15.006Z,14.20
2023-01-19T10:18:45.972Z,15.40
2023-01-19T10:21:27.251Z,7.55
2023-01-19T10:24:18.079Z,9.32
2023-01-19T10:26:49.815Z,12.45
2023-01-19T10:29:26.761Z,8.55
2023-01-19T10:31:55.472Z,13.30
2023-01-19T10:34:23.942Z,10.65
2023-01-19T10:36:50.909Z,13.70
2023-01-19T10:39:18.392Z,14.98
2023-01-19T10:41:49.287Z,12.48
2023-01-19T10:44:26.512Z,13.65
2023-01-19T10:46:54.489Z,12.38
2023-01-19T10:49:28.181Z,8.70
2023-01-19T10:51:55.820Z,18.42
2023-01-19T10:54:22.592Z,17.42
2023-01-19T10:56:57.363Z,11.80
2023-01-19T10:59:31.153Z,16.42
2023-01-19T11:02:21.188Z,13.25
2023-01-19T11:04:50.125Z,11.75
2023-01-19T11:07:27.956Z,11.32
2023-01-19T11:10:11.818Z,9.32
2023-01-19T11:13:02.100Z,14.73
2023-01-19T11:15:33.188Z,12.00
2023-01-19T11:18:00.096Z,12.80
2023-01-19T11:20:34.316Z,11.20
2023-01-19T11:23:08.367Z,16.77
2023-01-19T11:25:35.479Z,14.93
2023-01-19T11:28:02.180Z,8.30
2023-01-19T11:30:34.999Z,11.75
2023-01-19T11:33:01.938Z,13.80
2023-01-19T11:35:35.974Z,12.48
2023-01-19T11:38:20.329Z,12.27
2023-01-19T11:40:52.797Z,15.40
2023-01-19T11:43:20.823Z,6.72
2023-01-19T11:45:47.696Z,8.35
2023-01-19T11:48:27.288Z,5.22
2023-01-19T11:50:53.944Z,14.57
2023-01-19T11:53:29.290Z,11.35
2023-01-19T11:55:57.657Z,15.18
2023-01-19T11:58:24.499Z,11.82
2023-01-19T12:01:11.588Z,9.38
2023-01-19T12:03:46.997Z,5.45
2023-01-19T12:06:16.072Z,4.93
2023-01-19T12:09:04.224Z,12.70
2023-01-19T12:11:55.366Z,7.78
2023-01-19T12:14:27.471Z,6.57
2023-01-19T12:16:56.207Z,6.05
2023-01-19T12:19:25.331Z,4.03
2023-01-19T12:21:52.717Z,10.43
2023-01-19T12:24:31.941Z,9.57
2023-01-19T12:26:59.899Z,8.88
2023-01-19T12:29:28.815Z,10.38
2023-01-19T12:32:13.936Z,9.00
2023-01-19T12:34:45.078Z,2.90
2023-01-19T12:37:36.311Z,4.97
2023-01-19T12:40:05.631Z,5.65
2023-01-19T12:42:32.302Z,7.05
2023-01-19T12:45:09.359Z,5.95
2023-01-19T12:47:36.486Z,3.58
2023-01-19T12:50:08.003Z,11.88
2023-01-19T12:52:39.175Z,8.10
2023-01-19T12:55:15.136Z,5.10
2023-01-19T12:57:41.729Z,5.53
2023-01-19T13:00:26.598Z,6.97
2023-01-19T13:02:57.401Z,4.22
2023-01-19T13:05:33.569Z,7.72
2023-01-19T13:08:03.138Z,5.72
2023-01-19T13:11:05.610Z,6.63
2023-01-19T13:13:39.916Z,4.75
2023-01-19T13:18:49.079Z,6.75
2023-01-19T13:21:29.597Z,6.10
2023-01-19T13:24:06.357Z,4.93
2023-01-19T13:26:38.568Z,8.07
2023-01-19T13:29:13.234Z,4.60
2023-01-19T13:31:40.910Z,4.32
2023-01-19T13:34:15.123Z,9.55
2023-01-19T13:36:46.213Z,4.18
2023-01-19T13:39:17.680Z,3.97
2023-01-19T13:41:45.086Z,11.48
2023-01-19T13:44:21.843Z,7.78
2023-01-19T13:46:48.703Z,7.38
2023-01-19T13:49:23.405Z,8.68
2023-01-19T13:52:25.270Z,4.20
2023-01-19T13:55:01.729Z,4.85
2023-01-19T13:57:29.265Z,8.02
2023-01-19T14:00:17.342Z,7.32
2023-01-19T14:02:54.736Z,5.70
2023-01-19T14:05:30.102Z,4.25
2023-01-19T14:08:08.951Z,12.55
2023-01-19T14:10:36.247Z,6.10
2023-01-19T14:13:12.886Z,8.02
2023-01-19T14:15:40.784Z,8.10
2023-01-19T14:18:30.059Z,5.28
2023-01-19T14:21:08.908Z,6.05
2023-01-19T14:23:39.541Z,4.05
2023-01-19T14:26:42.370Z,4.35
2023-01-19T14:29:18.058Z,3.58
2023-01-19T14:31:44.672Z,5.75
2023-01-19T14:34:35.388Z,2.90
2023-01-19T14:37:03.281Z,5.70
2023-01-19T14:39:34.634Z,6.47
2023-01-19T14:42:03.185Z,3.88
2023-01-19T14:44:32.388Z,10.52
2023-01-19T14:46:59.639Z,4.22
2023-01-19T14:49:39.702Z,6.10
2023-01-19T14:52:19.231Z,4.35
2023-01-19T14:54:45.935Z,4.18
2023-01-19T14:57:15.820Z,7.53
2023-01-19T14:59:46.918Z,6.05
2023-01-19T15:02:13.737Z,6.70
2023-01-19T15:04:40.469Z,6.03
2023-01-19T15:07:07.270Z,4.97
2023-01-19T15:09:33.906Z,3.22
2023-01-19T15:12:00.666Z,1.73
2023-01-19T15:14:27.901Z,6.43
2023-01-19T15:16:54.581Z,2.75
2023-01-19T15:19:21.182Z,1.55
2023-01-19T15:21:47.858Z,7.03
2023-01-19T15:24:16.343Z,5.63
2023-01-19T15:26:44.402Z,2.75
2023-01-19T15:29:32.334Z,2.40
2023-01-19T15:31:59.055Z,2.95
2023-01-19T15:34:25.739Z,3.10
2023-01-19T15:36:52.350Z,28.77
2023-01-19T15:39:19.061Z,22.98
2023-01-19T15:41:45.696Z,14.25
2023-01-19T15:44:12.569Z,6.70
2023-01-19T15:46:39.299Z,2.15
2023-01-19T15:49:05.965Z,2.47
2023-01-19T15:51:33.072Z,4.90
2023-01-19T15:53:59.756Z,3.03
2023-01-19T15:56:30.588Z,0.85
2023-01-19T15:58:58.131Z,0.98
2023-01-19T16:01:31.471Z,1.10
2023-01-19T16:04:05.236Z,1.65
2023-01-19T16:06:32.156Z,0.90
2023-01-19T16:09:01.851Z,0.73
2023-01-19T16:11:29.873Z,1.95
2023-01-19T16:13:56.561Z,0.77
2023-01-19T16:16:24.182Z,1.23
2023-01-19T16:18:50.999Z,1.08
2023-01-19T16:21:17.644Z,0.98
2023-01-19T16:23:44.379Z,2.72
2023-01-19T16:26:32.539Z,8.38
2023-01-19T16:29:00.687Z,10.93
2023-01-19T16:31:27.487Z,31.42
2023-01-19T16:33:54.269Z,27.92
2023-01-19T16:36:26.518Z,19.95
2023-01-19T16:38:53.635Z,12.20
2023-01-19T16:41:20.522Z,11.70
2023-01-19T16:43:52.013Z,3.08
2023-01-19T16:46:23.511Z,23.80
2023-01-19T16:48:50.919Z,18.95
2023-01-19T16:51:17.660Z,32.58
2023-01-19T16:53:44.481Z,14.73
2023-01-19T16:56:12.747Z,6.20
2023-01-19T16:58:39.723Z,7.88
2023-01-19T17:01:10.884Z,2.85
2023-01-19T17:03:38.603Z,16.23
2023-01-19T17:06:09.047Z,12.73
2023-01-19T17:08:35.733Z,30.20
2023-01-19T17:11:09.399Z,27.35
2023-01-19T17:13:35.995Z,23.40
2023-01-19T17:16:02.930Z,22.75
2023-01-19T17:18:31.920Z,18.45
2023-01-19T17:21:06.341Z,10.20
2023-01-19T17:23:32.943Z,11.70
2023-01-19T17:25:59.633Z,12.30
2023-01-19T17:28:26.522Z,18.23
2023-01-19T17:30:53.465Z,22.50
2023-01-19T17:33:21.179Z,19.33
2023-01-19T17:35:47.925Z,13.65
2023-01-19T17:38:14.588Z,16.35
2023-01-19T17:40:41.204Z,16.85
2023-01-19T17:43:07.907Z,36.95
2023-01-19T17:45:36.104Z,11.50
2023-01-19T17:48:06.055Z,11.57
2023-01-19T17:50:34.565Z,21.92
2023-01-19T17:53:01.257Z,14.77
2023-01-19T17:55:27.978Z,8.27
2023-01-19T17:57:55.475Z,8.45
2023-01-19T18:00:22.580Z,7.65
2023-01-19T18:02:50.832Z,3.25
2023-01-19T18:05:18.291Z,5.20
2023-01-19T18:07:44.970Z,4.13
2023-01-19T18:10:11.906Z,9.82
2023-01-19T18:12:38.902Z,6.57
2023-01-19T18:15:06.224Z,12.38
2023-01-19T18:17:32.855Z,19.20
2023-01-19T18:19:59.595Z,8.77
2023-01-19T18:22:26.242Z,16.95
2023-01-19T18:24:52.844Z,17.63
2023-01-19T18:27:20.375Z,14.90
2023-01-19T18:29:47.074Z,16.10
2023-01-19T18:32:13.678Z,22.30
2023-01-19T18:34:40.393Z,9.05
2023-01-19T18:37:07.077Z,5.30
2023-01-19T18:39:33.806Z,5.32
2023-01-19T18:42:00.727Z,2.45
2023-01-19T18:44:27.605Z,7.07
2023-01-19T18:46:54.828Z,5.07
2023-01-19T18:49:21.453Z,7.53
2023-01-19T18:51:48.189Z,8.95
2023-01-19T18:54:14.926Z,7.63
2023-01-19T18:56:41.679Z,15.20
2023-01-19T18:59:08.383Z,15.23
2023-01-19T19:01:36.121Z,20.45
2023-01-19T19:04:03.084Z,16.95
2023-01-19T19:06:29.797Z,8.43
2023-01-19T19:08:57.302Z,4.38
2023-01-19T19:11:24.353Z,30.05
2023-01-19T19:13:55.196Z,42.53
2023-01-19T19:16:22.112Z,10.10
2023-01-19T19:18:52.126Z,10.93
2023-01-19T19:21:19.303Z,23.73
2023-01-19T19:23:53.346Z,15.70
2023-01-19T19:26:19.996Z,8.70
2023-01-19T19:28:47.374Z,7.40
2023-01-19T19:31:16.634Z,3.75
2023-01-19T19:33:43.339Z,2.83
2023-01-19T19:36:10.366Z,4.70
2023-01-19T19:38:37.178Z,6.63
2023-01-19T19:41:07.801Z,4.85
2023-01-19T19:43:34.710Z,4.68
2023-01-19T19:46:08.857Z,6.47
2023-01-19T19:51:25.722Z,7.65
2023-01-19T19:53:53.208Z,1.92
2023-01-19T19:56:21.367Z,2.83
2023-01-19T19:58:48.511Z,5.30
2023-01-19T20:01:19.845Z,5.28
2023-01-19T20:03:46.598Z,1.92
2023-01-19T20:06:20.593Z,5.07
2023-01-19T20:08:51.554Z,2.78
2023-01-19T20:11:22.685Z,3.72
2023-01-19T20:13:49.357Z,5.45
2023-01-19T20:16:17.875Z,3.85
2023-01-19T20:18:48.421Z,7.25
2023-01-19T20:21:35.693Z,2.97
2023-01-19T20:24:04.302Z,6.13
2023-01-19T20:26:33.074Z,3.50
2023-01-19T20:29:02.470Z,6.43
2023-01-19T20:31:30.609Z,2.45
2023-01-19T20:33:58.892Z,3.90
2023-01-19T20:36:25.986Z,2.35
2023-01-19T20:38:53.281Z,3.53
2023-01-19T20:41:20.324Z,4.30
2023-01-19T20:43:47.052Z,3.22
2023-01-19T20:46:13.772Z,1.95
2023-01-19T20:48:40.390Z,3.35
2023-01-19T20:51:12.116Z,9.18
2023-01-19T20:53:39.484Z,29.63
2023-01-19T20:56:11.196Z,17.27
2023-01-19T20:58:37.864Z,40.92
2023-01-19T21:01:15.354Z,26.30
2023-01-19T21:03:42.282Z,5.82
2023-01-19T21:06:09.125Z,21.10
2023-01-19T21:08:35.918Z,7.30
2023-01-19T21:11:02.650Z,14.40
2023-01-19T21:13:29.210Z,12.50
2023-01-19T21:15:55.873Z,3.67
2023-01-19T21:18:22.567Z,1.40
2023-01-19T21:20:49.368Z,6.20
2023-01-19T21:23:16.071Z,5.55
2023-01-19T21:25:50.897Z,6.20
2023-01-19T21:28:18.611Z,13.02
2023-01-19T21:30:45.382Z,4.95
2023-01-19T21:33:12.210Z,9.95
2023-01-19T21:35:38.925Z,5.10
2023-01-19T21:38:05.807Z,11.45
2023-01-19T21:40:32.527Z,9.23
2023-01-19T21:42:59.282Z,25.08
2023-01-19T21:45:25.909Z,11.10
2023-01-19T21:47:52.651Z,15.77
2023-01-19T21:50:19.524Z,16.55
2023-01-19T21:52:46.274Z,9.88
2023-01-19T21:55:13.089Z,8.40
2023-01-19T21:57:39.752Z,3.65
2023-01-19T22:00:07.181Z,8.40
2023-01-19T22:02:38.866Z,11.50
2023-01-19T22:05:06.666Z,4.03
2023-01-19T22:07:33.382Z,6.55
2023-01-19T22:10:00.086Z,22.38
2023-01-19T22:12:26.847Z,3.30
2023-01-19T22:14:53.533Z,12.13
2023-01-19T22:17:20.120Z,6.07
2023-01-19T22:19:47.571Z,3.20
2023-01-19T22:22:15.059Z,5.97
2023-01-19T22:24:46.477Z,5.75
2023-01-19T22:27:13.504Z,2.53
2023-01-19T22:29:40.108Z,3.45
2023-01-19T22:32:07.018Z,3.78
2023-01-19T22:34:33.864Z,0.93
2023-01-19T22:37:00.896Z,3.30
2023-01-19T22:39:27.461Z,1.17
2023-01-19T22:41:54.129Z,2.60
2023-01-19T22:44:21.317Z,1.48
2023-01-19T22:46:48.709Z,0.90
2023-01-19T22:49:16.702Z,0.93
2023-01-19T22:51:43.896Z,5.18
2023-01-19T22:54:10.860Z,3.28
2023-01-19T22:56:38.152Z,1.77
2023-01-19T22:59:05.239Z,1.83
2023-01-19T23:01:42.301Z,1.42
2023-01-19T23:04:12.313Z,1.02
2023-01-19T23:06:39.097Z,1.48
2023-01-19T23:09:07.502Z,6.18
2023-01-19T23:11:36.202Z,6.05
2023-01-19T23:14:03.749Z,5.57
2023-01-19T23:16:30.421Z,4.95
2023-01-19T23:18:57.828Z,3.85
2023-01-19T23:21:25.703Z,3.03
2023-01-19T23:23:56.602Z,4.72
2023-01-19T23:26:23.608Z,2.72
2023-01-19T23:29:01.166Z,3.00
2023-01-19T23:31:32.181Z,3.75
2023-01-19T23:34:03.467Z,2.42
2023-01-19T23:36:31.481Z,5.32
2023-01-19T23:38:59.927Z,2.80
2023-01-19T23:41:27.917Z,1.83
2023-01-19T23:43:54.682Z,2.20
2023-01-19T23:46:21.428Z,4.10
2023-01-19T23:48:48.076Z,1.05
2023-01-19T23:51:25.585Z,2.83
2023-01-19T23:53:52.227Z,2.00
2023-01-19T23:56:25.685Z,0.43
2023-01-19T23:58:59.534Z,0.30
